sensor_id;sensor_type;location;lat;lon;timestamp;P1;durP1;ratioP1;P2;durP2;ratioP2
2159;SDS011;1086;51.610;6.928;2022-10-16T03:55:21;2.80;;;2.33;;
2159;SDS011;1086;51.610;6.928;2022-10-16T03:57:46;3.05;;;2.45;;
2159;SDS011;1086;51.610;6.928;2022-10-16T04:00:12;3.73;;;2.00;;
2159;SDS011;1086;51.610;6.928;2022-10-16T04:02:38;4.40;;;2.50;;
2159;SDS011;1086;51.610;6.928;2022-10-16T04:05:03;4.03;;;2.42;;
2159;SDS011;1086;51.610;6.928;2022-10-16T04:07:28;2.50;;;2.30;;
2159;SDS011;1086;51.610;6.928;2022-10-16T04:09:54;5.37;;;2.30;;
2159;SDS011;1086;51.610;6.928;2022-10-16T04:12:19;3.72;;;2.28;;
2159;SDS011;1086;51.610;6.928;2022-10-16T04:14:44;3.03;;;2.20;;
2159;SDS011;1086;51.610;6.928;2022-10-16T04:17:09;3.47;;;1.93;;
2159;SDS011;1086;51.610;6.928;2022-10-16T04:19:35;2.07;;;1.90;;
2159;SDS011;1086;51.610;6.928;2022-10-16T04:22:00;2.50;;;1.93;;
2159;SDS011;1086;51.610;6.928;2022-10-16T04:24:25;5.30;;;2.43;;
2159;SDS011;1086;51.610;6.928;2022-10-16T04:26:50;3.00;;;1.90;;
2159;SDS011;1086;51.610;6.928;2022-10-16T04:29:16;2.83;;;2.60;;
2159;SDS011;1086;51.610;6.928;2022-10-16T04:31:41;4.80;;;2.40;;
2159;SDS011;1086;51.610;6.928;2022-10-16T04:34:06;4.25;;;1.92;;
2159;SDS011;1086;51.610;6.928;2022-10-16T04:36:32;4.97;;;2.13;;
2159;SDS011;1086;51.610;6.928;2022-10-16T04:38:57;2.45;;;1.98;;
2159;SDS011;1086;51.610;6.928;2022-10-16T04:41:22;2.72;;;2.00;;
2159;SDS011;1086;51.610;6.928;2022-10-16T04:43:47;2.40;;;2.20;;
2159;SDS011;1086;51.610;6.928;2022-10-16T04:46:13;2.27;;;2.07;;
2159;SDS011;1086;51.610;6.928;2022-10-16T04:48:38;2.88;;;2.08;;
2159;SDS011;1086;51.610;6.928;2022-10-16T04:51:03;2.30;;;2.10;;
2159;SDS011;1086;51.610;6.928;2022-10-16T04:53:29;2.25;;;2.03;;
2159;SDS011;1086;51.610;6.928;2022-10-16T04:55:54;2.03;;;1.77;;
2159;SDS011;1086;51.610;6.928;2022-10-16T04:58:19;7.63;;;2.30;;
2159;SDS011;1086;51.610;6.928;2022-10-16T05:00:45;3.00;;;2.40;;
2159;SDS011;1086;51.610;6.928;2022-10-16T05:03:12;3.03;;;2.53;;
2159;SDS011;1086;51.610;6.928;2022-10-16T05:05:41;3.78;;;2.35;;
2159;SDS011;1086;51.610;6.928;2022-10-16T05:08:06;2.45;;;2.22;;
2159;SDS011;1086;51.610;6.928;2022-10-16T05:10:32;4.00;;;1.83;;
2159;SDS011;1086;51.610;6.928;2022-10-16T05:12:57;2.43;;;1.87;;
2159;SDS011;1086;51.610;6.928;2022-10-16T05:15:22;4.65;;;2.13;;
2159;SDS011;1086;51.610;6.928;2022-10-16T05:17:51;4.93;;;3.08;;
2159;SDS011;1086;51.610;6.928;2022-10-16T05:20:17;2.05;;;1.85;;
2159;SDS011;1086;51.610;6.928;2022-10-16T05:22:42;2.25;;;1.98;;
2159;SDS011;1086;51.610;6.928;2022-10-16T05:25:07;3.33;;;2.20;;
2159;SDS011;1086;51.610;6.928;2022-10-16T05:27:33;2.45;;;2.25;;
2159;SDS011;1086;51.610;6.928;2022-10-16T05:29:58;3.30;;;2.00;;
2159;SDS011;1086;51.610;6.928;2022-10-16T05:32:23;2.50;;;2.30;;
2159;SDS011;1086;51.610;6.928;2022-10-16T05:34:50;2.63;;;2.20;;
2159;SDS011;1086;51.610;6.928;2022-10-16T05:37:15;2.88;;;1.90;;
2159;SDS011;1086;51.610;6.928;2022-10-16T05:39:40;2.30;;;2.10;;
2159;SDS011;1086;51.610;6.928;2022-10-16T05:42:06;2.30;;;2.10;;
2159;SDS011;1086;51.610;6.928;2022-10-16T05:44:31;2.25;;;2.05;;
2159;SDS011;1086;51.610;6.928;2022-10-16T05:46:56;2.22;;;2.05;;
2159;SDS011;1086;51.610;6.928;2022-10-16T05:49:22;2.73;;;1.97;;
2159;SDS011;1086;51.610;6.928;2022-10-16T05:51:47;2.53;;;2.20;;
2159;SDS011;1086;51.610;6.928;2022-10-16T05:54:12;5.65;;;2.28;;
2159;SDS011;1086;51.610;6.928;2022-10-16T05:56:38;2.45;;;2.17;;
2159;SDS011;1086;51.610;6.928;2022-10-16T05:59:03;2.42;;;2.13;;
2159;SDS011;1086;51.610;6.928;2022-10-16T06:01:29;6.65;;;2.35;;
2159;SDS011;1086;51.610;6.928;2022-10-16T06:03:54;4.53;;;2.22;;
2159;SDS011;1086;51.610;6.928;2022-10-16T06:06:20;2.13;;;2.03;;
2159;SDS011;1086;51.610;6.928;2022-10-16T06:08:46;3.15;;;2.33;;
2159;SDS011;1086;51.610;6.928;2022-10-16T06:11:12;3.92;;;2.28;;
2159;SDS011;1086;51.610;6.928;2022-10-16T06:13:37;3.25;;;2.17;;
2159;SDS011;1086;51.610;6.928;2022-10-16T06:16:04;2.35;;;2.15;;
2159;SDS011;1086;51.610;6.928;2022-10-16T06:18:29;2.25;;;2.05;;
2159;SDS011;1086;51.610;6.928;2022-10-16T06:20:55;2.83;;;2.17;;
2159;SDS011;1086;51.610;6.928;2022-10-16T06:23:20;3.47;;;2.22;;
2159;SDS011;1086;51.610;6.928;2022-10-16T06:25:46;1.87;;;1.77;;
2159;SDS011;1086;51.610;6.928;2022-10-16T06:28:11;2.75;;;2.17;;
2159;SDS011;1086;51.610;6.928;2022-10-16T06:30:38;3.03;;;2.20;;
2159;SDS011;1086;51.610;6.928;2022-10-16T06:33:03;4.03;;;2.50;;
2159;SDS011;1086;51.610;6.928;2022-10-16T06:35:28;2.13;;;1.93;;
2159;SDS011;1086;51.610;6.928;2022-10-16T06:37:54;5.88;;;2.38;;
2159;SDS011;1086;51.610;6.928;2022-10-16T06:40:19;2.42;;;2.22;;
2159;SDS011;1086;51.610;6.928;2022-10-16T06:42:44;2.30;;;2.20;;
2159;SDS011;1086;51.610;6.928;2022-10-16T06:45:10;3.53;;;2.28;;
2159;SDS011;1086;51.610;6.928;2022-10-16T06:47:35;2.60;;;2.40;;
2159;SDS011;1086;51.610;6.928;2022-10-16T06:50:01;8.23;;;2.50;;
2159;SDS011;1086;51.610;6.928;2022-10-16T06:52:29;3.13;;;2.60;;
2159;SDS011;1086;51.610;6.928;2022-10-16T06:54:54;5.05;;;3.17;;
2159;SDS011;1086;51.610;6.928;2022-10-16T06:57:19;8.77;;;3.88;;
2159;SDS011;1086;51.610;6.928;2022-10-16T06:59:45;5.30;;;3.08;;
2159;SDS011;1086;51.610;6.928;2022-10-16T07:02:10;3.13;;;2.70;;
2159;SDS011;1086;51.610;6.928;2022-10-16T07:04:36;4.32;;;2.55;;
2159;SDS011;1086;51.610;6.928;2022-10-16T07:07:01;3.17;;;2.60;;
2159;SDS011;1086;51.610;6.928;2022-10-16T07:09:26;2.63;;;2.40;;
2159;SDS011;1086;51.610;6.928;2022-10-16T07:11:52;4.78;;;2.95;;
2159;SDS011;1086;51.610;6.928;2022-10-16T07:14:18;3.03;;;2.63;;
2159;SDS011;1086;51.610;6.928;2022-10-16T07:16:44;6.28;;;2.97;;
2159;SDS011;1086;51.610;6.928;2022-10-16T07:19:09;3.20;;;2.90;;
2159;SDS011;1086;51.610;6.928;2022-10-16T07:21:36;3.80;;;2.70;;
2159;SDS011;1086;51.610;6.928;2022-10-16T07:24:02;4.00;;;2.85;;
2159;SDS011;1086;51.610;6.928;2022-10-16T07:26:29;4.03;;;2.85;;
2159;SDS011;1086;51.610;6.928;2022-10-16T07:28:55;6.05;;;2.80;;
2159;SDS011;1086;51.610;6.928;2022-10-16T07:31:20;3.40;;;2.67;;
2159;SDS011;1086;51.610;6.928;2022-10-16T07:33:46;3.75;;;2.90;;
2159;SDS011;1086;51.610;6.928;2022-10-16T07:36:13;3.60;;;2.65;;
2159;SDS011;1086;51.610;6.928;2022-10-16T07:38:38;5.05;;;2.75;;
2159;SDS011;1086;51.610;6.928;2022-10-16T07:41:04;7.40;;;3.00;;
2159;SDS011;1086;51.610;6.928;2022-10-16T07:43:30;4.45;;;2.63;;
2159;SDS011;1086;51.610;6.928;2022-10-16T07:45:56;3.80;;;3.00;;
2159;SDS011;1086;51.610;6.928;2022-10-16T07:48:22;4.95;;;2.75;;
2159;SDS011;1086;51.610;6.928;2022-10-16T07:50:47;6.95;;;2.90;;
2159;SDS011;1086;51.610;6.928;2022-10-16T07:53:13;4.93;;;3.03;;
2159;SDS011;1086;51.610;6.928;2022-10-16T07:55:38;5.28;;;3.40;;
2159;SDS011;1086;51.610;6.928;2022-10-16T07:58:04;3.72;;;2.80;;
2159;SDS011;1086;51.610;6.928;2022-10-16T08:00:29;5.97;;;3.05;;
2159;SDS011;1086;51.610;6.928;2022-10-16T08:02:55;5.93;;;2.97;;
2159;SDS011;1086;51.610;6.928;2022-10-16T08:05:21;5.82;;;2.80;;
2159;SDS011;1086;51.610;6.928;2022-10-16T08:07:50;4.93;;;2.80;;
2159;SDS011;1086;51.610;6.928;2022-10-16T08:10:16;3.92;;;2.90;;
2159;SDS011;1086;51.610;6.928;2022-10-16T08:12:41;6.78;;;2.65;;
2159;SDS011;1086;51.610;6.928;2022-10-16T08:15:07;3.67;;;2.60;;
2159;SDS011;1086;51.610;6.928;2022-10-16T08:17:32;5.68;;;2.80;;
2159;SDS011;1086;51.610;6.928;2022-10-16T08:19:57;3.03;;;2.25;;
2159;SDS011;1086;51.610;6.928;2022-10-16T08:22:23;3.63;;;2.23;;
2159;SDS011;1086;51.610;6.928;2022-10-16T08:24:48;5.20;;;2.50;;
2159;SDS011;1086;51.610;6.928;2022-10-16T08:27:13;4.03;;;2.43;;
2159;SDS011;1086;51.610;6.928;2022-10-16T08:29:38;3.33;;;2.03;;
2159;SDS011;1086;51.610;6.928;2022-10-16T08:32:05;6.50;;;2.40;;
2159;SDS011;1086;51.610;6.928;2022-10-16T08:34:33;3.28;;;2.10;;
2159;SDS011;1086;51.610;6.928;2022-10-16T08:36:58;2.42;;;1.65;;
2159;SDS011;1086;51.610;6.928;2022-10-16T08:39:23;3.87;;;1.90;;
2159;SDS011;1086;51.610;6.928;2022-10-16T08:41:56;5.10;;;2.20;;
2159;SDS011;1086;51.610;6.928;2022-10-16T08:49:37;4.47;;;1.63;;
2159;SDS011;1086;51.610;6.928;2022-10-16T08:52:08;3.83;;;2.00;;
2159;SDS011;1086;51.610;6.928;2022-10-16T08:54:36;5.10;;;1.55;;
2159;SDS011;1086;51.610;6.928;2022-10-16T08:57:16;4.13;;;1.70;;
2159;SDS011;1086;51.610;6.928;2022-10-16T08:59:42;2.88;;;1.50;;
2159;SDS011;1086;51.610;6.928;2022-10-16T09:04:57;4.80;;;1.70;;
2159;SDS011;1086;51.610;6.928;2022-10-16T09:07:36;5.20;;;1.63;;
2159;SDS011;1086;51.610;6.928;2022-10-16T09:13:32;3.43;;;1.40;;
2159;SDS011;1086;51.610;6.928;2022-10-16T09:18:04;3.08;;;1.65;;
2159;SDS011;1086;51.610;6.928;2022-10-16T09:20:50;3.90;;;1.73;;
2159;SDS011;1086;51.610;6.928;2022-10-16T09:23:21;11.63;;;2.20;;
2159;SDS011;1086;51.610;6.928;2022-10-16T09:25:48;8.43;;;2.10;;
2159;SDS011;1086;51.610;6.928;2022-10-16T09:28:14;3.35;;;2.13;;
2159;SDS011;1086;51.610;6.928;2022-10-16T09:30:40;3.95;;;1.40;;
2159;SDS011;1086;51.610;6.928;2022-10-16T09:33:05;2.70;;;1.70;;
2159;SDS011;1086;51.610;6.928;2022-10-16T09:35:33;4.13;;;1.30;;
2159;SDS011;1086;51.610;6.928;2022-10-16T09:38:00;4.20;;;1.88;;
2159;SDS011;1086;51.610;6.928;2022-10-16T09:40:30;1.97;;;1.23;;
2159;SDS011;1086;51.610;6.928;2022-10-16T09:42:57;2.35;;;1.67;;
2159;SDS011;1086;51.610;6.928;2022-10-16T09:45:26;2.65;;;1.40;;
2159;SDS011;1086;51.610;6.928;2022-10-16T09:47:51;2.85;;;1.50;;
2159;SDS011;1086;51.610;6.928;2022-10-16T09:50:23;3.50;;;1.33;;
2159;SDS011;1086;51.610;6.928;2022-10-16T09:52:50;4.47;;;1.50;;
2159;SDS011;1086;51.610;6.928;2022-10-16T09:55:16;2.00;;;1.23;;
2159;SDS011;1086;51.610;6.928;2022-10-16T09:57:54;3.80;;;1.40;;
2159;SDS011;1086;51.610;6.928;2022-10-16T10:00:19;3.55;;;1.30;;
2159;SDS011;1086;51.610;6.928;2022-10-16T10:02:45;2.60;;;1.30;;
2159;SDS011;1086;51.610;6.928;2022-10-16T10:05:27;3.28;;;1.17;;
2159;SDS011;1086;51.610;6.928;2022-10-16T10:07:57;1.95;;;1.27;;
2159;SDS011;1086;51.610;6.928;2022-10-16T10:10:24;4.03;;;1.48;;
2159;SDS011;1086;51.610;6.928;2022-10-16T10:12:51;2.65;;;1.23;;
2159;SDS011;1086;51.610;6.928;2022-10-16T10:15:17;1.05;;;0.95;;
2159;SDS011;1086;51.610;6.928;2022-10-16T10:17:53;1.00;;;0.88;;
2159;SDS011;1086;51.610;6.928;2022-10-16T10:20:24;1.55;;;1.25;;
2159;SDS011;1086;51.610;6.928;2022-10-16T10:22:49;2.00;;;1.10;;
2159;SDS011;1086;51.610;6.928;2022-10-16T10:25:32;2.15;;;1.10;;
2159;SDS011;1086;51.610;6.928;2022-10-16T10:35:41;1.45;;;0.90;;
2159;SDS011;1086;51.610;6.928;2022-10-16T10:40:44;2.15;;;1.25;;
2159;SDS011;1086;51.610;6.928;2022-10-16T10:43:16;3.30;;;1.00;;
2159;SDS011;1086;51.610;6.928;2022-10-16T10:45:45;1.10;;;0.80;;
2159;SDS011;1086;51.610;6.928;2022-10-16T10:48:20;3.83;;;1.20;;
2159;SDS011;1086;51.610;6.928;2022-10-16T10:50:51;2.08;;;1.13;;
2159;SDS011;1086;51.610;6.928;2022-10-16T10:55:44;1.50;;;0.70;;
2159;SDS011;1086;51.610;6.928;2022-10-16T11:00:48;0.73;;;0.70;;
2159;SDS011;1086;51.610;6.928;2022-10-16T11:05:49;0.93;;;0.77;;
2159;SDS011;1086;51.610;6.928;2022-10-16T11:08:19;3.13;;;0.90;;
2159;SDS011;1086;51.610;6.928;2022-10-16T11:10:52;1.45;;;1.15;;
2159;SDS011;1086;51.610;6.928;2022-10-16T11:16:03;2.80;;;1.20;;
2159;SDS011;1086;51.610;6.928;2022-10-16T11:18:46;3.22;;;1.20;;
2159;SDS011;1086;51.610;6.928;2022-10-16T11:21:14;1.10;;;0.70;;
2159;SDS011;1086;51.610;6.928;2022-10-16T11:26:18;3.55;;;2.25;;
2159;SDS011;1086;51.610;6.928;2022-10-16T11:28:51;1.85;;;1.20;;
2159;SDS011;1086;51.610;6.928;2022-10-16T11:31:40;2.55;;;1.10;;
2159;SDS011;1086;51.610;6.928;2022-10-16T11:34:29;2.25;;;0.82;;
2159;SDS011;1086;51.610;6.928;2022-10-16T11:36:56;3.40;;;1.17;;
2159;SDS011;1086;51.610;6.928;2022-10-16T11:39:24;2.40;;;1.00;;
2159;SDS011;1086;51.610;6.928;2022-10-16T11:41:55;2.78;;;1.20;;
2159;SDS011;1086;51.610;6.928;2022-10-16T11:49:31;2.37;;;1.30;;
2159;SDS011;1086;51.610;6.928;2022-10-16T11:54:44;3.20;;;1.23;;
2159;SDS011;1086;51.610;6.928;2022-10-16T11:57:16;3.70;;;1.58;;
2159;SDS011;1086;51.610;6.928;2022-10-16T11:59:55;3.35;;;1.35;;
2159;SDS011;1086;51.610;6.928;2022-10-16T12:02:30;5.32;;;2.50;;
2159;SDS011;1086;51.610;6.928;2022-10-16T12:07:36;3.65;;;1.30;;
2159;SDS011;1086;51.610;6.928;2022-10-16T12:10:22;1.00;;;0.93;;
2159;SDS011;1086;51.610;6.928;2022-10-16T12:12:47;1.85;;;1.10;;
2159;SDS011;1086;51.610;6.928;2022-10-16T12:22:41;3.38;;;1.10;;
2159;SDS011;1086;51.610;6.928;2022-10-16T12:25:25;1.45;;;0.90;;
2159;SDS011;1086;51.610;6.928;2022-10-16T12:28:03;1.77;;;0.95;;
2159;SDS011;1086;51.610;6.928;2022-10-16T12:30:30;0.80;;;0.60;;
2159;SDS011;1086;51.610;6.928;2022-10-16T12:32:56;2.05;;;1.38;;
2159;SDS011;1086;51.610;6.928;2022-10-16T12:35:26;2.60;;;0.80;;
2159;SDS011;1086;51.610;6.928;2022-10-16T12:37:52;3.42;;;1.20;;
2159;SDS011;1086;51.610;6.928;2022-10-16T12:42:52;4.47;;;1.52;;
2159;SDS011;1086;51.610;6.928;2022-10-16T12:45:25;2.00;;;1.58;;
2159;SDS011;1086;51.610;6.928;2022-10-16T12:47:52;2.67;;;1.92;;
2159;SDS011;1086;51.610;6.928;2022-10-16T12:52:50;3.72;;;1.63;;
2159;SDS011;1086;51.610;6.928;2022-10-16T12:55:17;1.80;;;1.17;;
2159;SDS011;1086;51.610;6.928;2022-10-16T13:00:32;2.50;;;1.47;;
2159;SDS011;1086;51.610;6.928;2022-10-16T13:13:18;2.57;;;1.20;;
2159;SDS011;1086;51.610;6.928;2022-10-16T13:28:22;2.53;;;1.45;;
2159;SDS011;1086;51.610;6.928;2022-10-16T13:33:19;4.30;;;2.37;;
2159;SDS011;1086;51.610;6.928;2022-10-16T13:35:47;4.47;;;2.10;;
2159;SDS011;1086;51.610;6.928;2022-10-16T13:38:14;5.18;;;1.70;;
2159;SDS011;1086;51.610;6.928;2022-10-16T13:40:59;3.78;;;2.28;;
2159;SDS011;1086;51.610;6.928;2022-10-16T13:46:00;4.67;;;1.50;;
2159;SDS011;1086;51.610;6.928;2022-10-16T13:48:26;2.15;;;1.40;;
2159;SDS011;1086;51.610;6.928;2022-10-16T13:51:25;3.90;;;1.13;;
2159;SDS011;1086;51.610;6.928;2022-10-16T13:53:44;2.97;;;1.35;;
2159;SDS011;1086;51.610;6.928;2022-10-16T13:56:11;4.35;;;1.20;;
2159;SDS011;1086;51.610;6.928;2022-10-16T13:58:36;3.15;;;1.50;;
2159;SDS011;1086;51.610;6.928;2022-10-16T14:01:02;2.80;;;1.10;;
2159;SDS011;1086;51.610;6.928;2022-10-16T14:03:29;1.67;;;1.15;;
2159;SDS011;1086;51.610;6.928;2022-10-16T14:05:59;2.65;;;1.25;;
2159;SDS011;1086;51.610;6.928;2022-10-16T14:08:25;2.38;;;1.45;;
2159;SDS011;1086;51.610;6.928;2022-10-16T14:11:00;3.53;;;1.38;;
2159;SDS011;1086;51.610;6.928;2022-10-16T14:13:39;2.58;;;1.63;;
2159;SDS011;1086;51.610;6.928;2022-10-16T14:16:09;2.67;;;1.30;;
2159;SDS011;1086;51.610;6.928;2022-10-16T14:18:34;3.08;;;1.10;;
2159;SDS011;1086;51.610;6.928;2022-10-16T14:21:06;3.53;;;1.17;;
2159;SDS011;1086;51.610;6.928;2022-10-16T14:23:39;2.20;;;0.90;;
2159;SDS011;1086;51.610;6.928;2022-10-16T14:26:05;4.15;;;1.50;;
2159;SDS011;1086;51.610;6.928;2022-10-16T14:28:31;3.20;;;1.95;;
2159;SDS011;1086;51.610;6.928;2022-10-16T14:30:57;3.73;;;2.23;;
2159;SDS011;1086;51.610;6.928;2022-10-16T14:35:57;4.95;;;1.88;;
2159;SDS011;1086;51.610;6.928;2022-10-16T14:38:24;11.10;;;3.90;;
2159;SDS011;1086;51.610;6.928;2022-10-16T14:40:49;3.30;;;2.05;;
2159;SDS011;1086;51.610;6.928;2022-10-16T14:43:19;4.68;;;2.60;;
2159;SDS011;1086;51.610;6.928;2022-10-16T14:45:49;6.00;;;2.75;;
2159;SDS011;1086;51.610;6.928;2022-10-16T14:48:16;4.15;;;1.10;;
2159;SDS011;1086;51.610;6.928;2022-10-16T14:50:42;3.60;;;1.73;;
2159;SDS011;1086;51.610;6.928;2022-10-16T14:53:10;2.13;;;1.70;;
2159;SDS011;1086;51.610;6.928;2022-10-16T14:55:36;2.47;;;1.00;;
2159;SDS011;1086;51.610;6.928;2022-10-16T14:58:02;1.85;;;1.08;;
2159;SDS011;1086;51.610;6.928;2022-10-16T15:00:27;2.30;;;1.10;;
2159;SDS011;1086;51.610;6.928;2022-10-16T15:02:52;1.55;;;1.00;;
2159;SDS011;1086;51.610;6.928;2022-10-16T15:05:19;2.07;;;0.90;;
2159;SDS011;1086;51.610;6.928;2022-10-16T15:07:44;1.05;;;0.75;;
2159;SDS011;1086;51.610;6.928;2022-10-16T15:10:11;1.42;;;0.80;;
2159;SDS011;1086;51.610;6.928;2022-10-16T15:12:44;1.13;;;0.60;;
2159;SDS011;1086;51.610;6.928;2022-10-16T15:15:21;2.72;;;0.90;;
2159;SDS011;1086;51.610;6.928;2022-10-16T15:18:10;2.25;;;0.95;;
2159;SDS011;1086;51.610;6.928;2022-10-16T15:20:39;2.00;;;1.00;;
2159;SDS011;1086;51.610;6.928;2022-10-16T15:23:13;1.25;;;0.80;;
2159;SDS011;1086;51.610;6.928;2022-10-16T15:25:45;3.28;;;1.15;;
2159;SDS011;1086;51.610;6.928;2022-10-16T15:28:14;2.20;;;1.13;;
2159;SDS011;1086;51.610;6.928;2022-10-16T15:30:39;2.40;;;1.27;;
2159;SDS011;1086;51.610;6.928;2022-10-16T15:33:09;2.05;;;1.30;;
2159;SDS011;1086;51.610;6.928;2022-10-16T15:35:45;1.80;;;1.05;;
2159;SDS011;1086;51.610;6.928;2022-10-16T15:38:14;3.13;;;1.27;;
2159;SDS011;1086;51.610;6.928;2022-10-16T15:40:42;1.65;;;1.13;;
2159;SDS011;1086;51.610;6.928;2022-10-16T15:43:10;3.30;;;1.55;;
2159;SDS011;1086;51.610;6.928;2022-10-16T15:45:39;3.67;;;1.20;;
2159;SDS011;1086;51.610;6.928;2022-10-16T15:48:04;2.80;;;1.10;;
2159;SDS011;1086;51.610;6.928;2022-10-16T15:50:30;2.37;;;1.17;;
2159;SDS011;1086;51.610;6.928;2022-10-16T15:52:55;3.03;;;1.52;;
2159;SDS011;1086;51.610;6.928;2022-10-16T15:55:21;3.25;;;1.30;;
2159;SDS011;1086;51.610;6.928;2022-10-16T15:57:46;2.63;;;1.20;;
2159;SDS011;1086;51.610;6.928;2022-10-16T16:00:13;2.03;;;1.27;;
2159;SDS011;1086;51.610;6.928;2022-10-16T16:02:41;2.35;;;1.13;;
2159;SDS011;1086;51.610;6.928;2022-10-16T16:05:07;1.92;;;1.17;;
2159;SDS011;1086;51.610;6.928;2022-10-16T16:07:35;3.20;;;1.30;;
2159;SDS011;1086;51.610;6.928;2022-10-16T16:10:01;1.90;;;1.08;;
2159;SDS011;1086;51.610;6.928;2022-10-16T16:12:26;6.15;;;1.40;;
2159;SDS011;1086;51.610;6.928;2022-10-16T16:14:52;1.58;;;1.25;;
2159;SDS011;1086;51.610;6.928;2022-10-16T16:17:17;2.70;;;1.30;;
2159;SDS011;1086;51.610;6.928;2022-10-16T16:19:43;7.90;;;1.70;;
2159;SDS011;1086;51.610;6.928;2022-10-16T16:22:08;1.53;;;1.43;;
2159;SDS011;1086;51.610;6.928;2022-10-16T16:24:33;3.67;;;1.40;;
2159;SDS011;1086;51.610;6.928;2022-10-16T16:26:58;2.30;;;1.40;;
2159;SDS011;1086;51.610;6.928;2022-10-16T16:29:24;4.23;;;1.40;;
2159;SDS011;1086;51.610;6.928;2022-10-16T16:31:49;3.27;;;1.30;;
2159;SDS011;1086;51.610;6.928;2022-10-16T16:34:14;1.95;;;1.40;;
2159;SDS011;1086;51.610;6.928;2022-10-16T16:36:39;3.43;;;1.10;;
2159;SDS011;1086;51.610;6.928;2022-10-16T16:39:05;3.65;;;1.75;;
2159;SDS011;1086;51.610;6.928;2022-10-16T16:41:31;2.78;;;1.38;;
2159;SDS011;1086;51.610;6.928;2022-10-16T16:44:02;8.88;;;1.60;;
2159;SDS011;1086;51.610;6.928;2022-10-16T16:46:27;2.50;;;1.30;;
2159;SDS011;1086;51.610;6.928;2022-10-16T16:48:52;2.67;;;1.75;;
2159;SDS011;1086;51.610;6.928;2022-10-16T16:51:20;3.28;;;1.65;;
2159;SDS011;1086;51.610;6.928;2022-10-16T16:53:47;4.03;;;1.52;;
2159;SDS011;1086;51.610;6.928;2022-10-16T16:56:12;2.80;;;1.38;;
2159;SDS011;1086;51.610;6.928;2022-10-16T16:58:38;4.22;;;1.40;;
2159;SDS011;1086;51.610;6.928;2022-10-16T17:01:03;2.97;;;1.48;;
2159;SDS011;1086;51.610;6.928;2022-10-16T17:03:30;1.85;;;1.52;;
2159;SDS011;1086;51.610;6.928;2022-10-16T17:05:59;2.33;;;1.40;;
2159;SDS011;1086;51.610;6.928;2022-10-16T17:08:25;4.05;;;1.73;;
2159;SDS011;1086;51.610;6.928;2022-10-16T17:10:50;3.92;;;1.65;;
2159;SDS011;1086;51.610;6.928;2022-10-16T17:13:21;2.03;;;1.42;;
2159;SDS011;1086;51.610;6.928;2022-10-16T17:15:48;2.03;;;1.40;;
2159;SDS011;1086;51.610;6.928;2022-10-16T17:18:13;4.20;;;1.60;;
2159;SDS011;1086;51.610;6.928;2022-10-16T17:20:38;1.80;;;1.33;;
2159;SDS011;1086;51.610;6.928;2022-10-16T17:23:04;2.83;;;1.50;;
2159;SDS011;1086;51.610;6.928;2022-10-16T17:25:29;4.53;;;1.97;;
2159;SDS011;1086;51.610;6.928;2022-10-16T17:27:54;5.30;;;1.95;;
2159;SDS011;1086;51.610;6.928;2022-10-16T17:30:19;2.92;;;1.83;;
2159;SDS011;1086;51.610;6.928;2022-10-16T17:32:45;5.20;;;2.73;;
2159;SDS011;1086;51.610;6.928;2022-10-16T17:35:10;5.43;;;2.00;;
2159;SDS011;1086;51.610;6.928;2022-10-16T17:37:35;5.53;;;2.50;;
2159;SDS011;1086;51.610;6.928;2022-10-16T17:40:01;4.27;;;2.20;;
2159;SDS011;1086;51.610;6.928;2022-10-16T17:42:26;4.85;;;1.88;;
2159;SDS011;1086;51.610;6.928;2022-10-16T17:44:51;3.37;;;2.07;;
2159;SDS011;1086;51.610;6.928;2022-10-16T17:47:16;6.20;;;2.10;;
2159;SDS011;1086;51.610;6.928;2022-10-16T17:49:41;3.33;;;2.33;;
2159;SDS011;1086;51.610;6.928;2022-10-16T17:52:07;2.95;;;2.05;;
2159;SDS011;1086;51.610;6.928;2022-10-16T17:54:32;4.97;;;2.10;;
2159;SDS011;1086;51.610;6.928;2022-10-16T17:56:58;6.15;;;3.08;;
2159;SDS011;1086;51.610;6.928;2022-10-16T17:59:23;6.35;;;2.58;;
2159;SDS011;1086;51.610;6.928;2022-10-16T18:01:48;6.60;;;2.40;;
2159;SDS011;1086;51.610;6.928;2022-10-16T18:04:14;5.63;;;2.73;;
2159;SDS011;1086;51.610;6.928;2022-10-16T18:06:40;6.25;;;3.22;;
2159;SDS011;1086;51.610;6.928;2022-10-16T18:09:07;6.55;;;3.70;;
2159;SDS011;1086;51.610;6.928;2022-10-16T18:11:33;6.45;;;3.33;;
2159;SDS011;1086;51.610;6.928;2022-10-16T18:13:58;7.45;;;3.38;;
2159;SDS011;1086;51.610;6.928;2022-10-16T18:16:24;11.13;;;3.50;;
2159;SDS011;1086;51.610;6.928;2022-10-16T18:18:50;4.38;;;3.30;;
2159;SDS011;1086;51.610;6.928;2022-10-16T18:21:17;5.40;;;2.65;;
2159;SDS011;1086;51.610;6.928;2022-10-16T18:23:42;7.45;;;3.17;;
2159;SDS011;1086;51.610;6.928;2022-10-16T18:26:11;5.72;;;2.90;;
2159;SDS011;1086;51.610;6.928;2022-10-16T18:28:37;7.82;;;2.97;;
2159;SDS011;1086;51.610;6.928;2022-10-16T18:31:04;9.43;;;3.22;;
2159;SDS011;1086;51.610;6.928;2022-10-16T18:33:29;4.50;;;3.08;;
2159;SDS011;1086;51.610;6.928;2022-10-16T18:35:55;5.15;;;3.00;;
2159;SDS011;1086;51.610;6.928;2022-10-16T18:38:20;7.93;;;3.28;;
2159;SDS011;1086;51.610;6.928;2022-10-16T18:40:46;7.45;;;3.08;;
2159;SDS011;1086;51.610;6.928;2022-10-16T18:43:11;6.23;;;3.03;;
2159;SDS011;1086;51.610;6.928;2022-10-16T18:45:36;3.10;;;2.45;;
2159;SDS011;1086;51.610;6.928;2022-10-16T18:48:02;5.78;;;3.05;;
2159;SDS011;1086;51.610;6.928;2022-10-16T18:50:27;10.90;;;2.70;;
2159;SDS011;1086;51.610;6.928;2022-10-16T18:52:53;4.18;;;2.60;;
2159;SDS011;1086;51.610;6.928;2022-10-16T18:55:18;4.45;;;2.60;;
2159;SDS011;1086;51.610;6.928;2022-10-16T18:57:45;2.88;;;2.50;;
2159;SDS011;1086;51.610;6.928;2022-10-16T19:00:10;5.40;;;3.05;;
2159;SDS011;1086;51.610;6.928;2022-10-16T19:02:35;6.47;;;3.30;;
2159;SDS011;1086;51.610;6.928;2022-10-16T19:05:01;3.03;;;2.60;;
2159;SDS011;1086;51.610;6.928;2022-10-16T19:07:26;11.07;;;3.00;;
2159;SDS011;1086;51.610;6.928;2022-10-16T19:09:51;6.28;;;2.80;;
2159;SDS011;1086;51.610;6.928;2022-10-16T19:12:17;6.20;;;2.92;;
2159;SDS011;1086;51.610;6.928;2022-10-16T19:14:42;5.38;;;2.85;;
2159;SDS011;1086;51.610;6.928;2022-10-16T19:17:07;6.67;;;3.00;;
2159;SDS011;1086;51.610;6.928;2022-10-16T19:19:33;9.27;;;3.33;;
2159;SDS011;1086;51.610;6.928;2022-10-16T19:21:58;5.93;;;3.33;;
2159;SDS011;1086;51.610;6.928;2022-10-16T19:24:38;3.55;;;2.53;;
2159;SDS011;1086;51.610;6.928;2022-10-16T19:27:04;4.80;;;3.05;;
2159;SDS011;1086;51.610;6.928;2022-10-16T19:29:29;7.35;;;3.30;;
2159;SDS011;1086;51.610;6.928;2022-10-16T19:31:55;9.55;;;3.28;;
2159;SDS011;1086;51.610;6.928;2022-10-16T19:34:20;4.38;;;3.00;;
2159;SDS011;1086;51.610;6.928;2022-10-16T19:36:45;3.72;;;2.55;;
2159;SDS011;1086;51.610;6.928;2022-10-16T19:39:13;5.10;;;2.80;;
2159;SDS011;1086;51.610;6.928;2022-10-16T19:41:39;6.88;;;2.78;;
2159;SDS011;1086;51.610;6.928;2022-10-16T19:44:05;4.00;;;2.50;;
2159;SDS011;1086;51.610;6.928;2022-10-16T19:46:31;4.22;;;2.90;;
2159;SDS011;1086;51.610;6.928;2022-10-16T19:49:01;5.85;;;2.90;;
2159;SDS011;1086;51.610;6.928;2022-10-16T19:51:27;6.43;;;2.72;;
2159;SDS011;1086;51.610;6.928;2022-10-16T19:53:54;4.68;;;3.00;;
2159;SDS011;1086;51.610;6.928;2022-10-16T19:56:20;4.88;;;3.08;;
2159;SDS011;1086;51.610;6.928;2022-10-16T19:58:46;4.93;;;3.35;;
2159;SDS011;1086;51.610;6.928;2022-10-16T20:01:12;5.68;;;3.53;;
2159;SDS011;1086;51.610;6.928;2022-10-16T20:03:37;4.32;;;2.90;;
2159;SDS011;1086;51.610;6.928;2022-10-16T20:06:06;5.40;;;3.25;;
2159;SDS011;1086;51.610;6.928;2022-10-16T20:08:32;5.25;;;3.38;;
2159;SDS011;1086;51.610;6.928;2022-10-16T20:10:58;5.55;;;3.00;;
2159;SDS011;1086;51.610;6.928;2022-10-16T20:13:23;5.18;;;3.80;;
2159;SDS011;1086;51.610;6.928;2022-10-16T20:15:48;5.17;;;3.50;;
2159;SDS011;1086;51.610;6.928;2022-10-16T20:18:14;5.32;;;3.60;;
2159;SDS011;1086;51.610;6.928;2022-10-16T20:20:40;8.05;;;3.47;;
2159;SDS011;1086;51.610;6.928;2022-10-16T20:23:06;4.55;;;3.20;;
2159;SDS011;1086;51.610;6.928;2022-10-16T20:25:38;5.45;;;3.25;;
2159;SDS011;1086;51.610;6.928;2022-10-16T20:28:04;6.55;;;3.90;;
2159;SDS011;1086;51.610;6.928;2022-10-16T20:30:34;8.57;;;4.00;;
2159;SDS011;1086;51.610;6.928;2022-10-16T20:32:59;5.13;;;3.92;;
2159;SDS011;1086;51.610;6.928;2022-10-16T20:35:24;7.80;;;4.30;;
2159;SDS011;1086;51.610;6.928;2022-10-16T20:37:50;6.00;;;4.03;;
2159;SDS011;1086;51.610;6.928;2022-10-16T20:40:15;8.17;;;4.57;;
2159;SDS011;1086;51.610;6.928;2022-10-16T20:42:40;5.55;;;4.10;;